createdAt,value
2023-04-23T00:00:14.643Z,26.06
2023-04-23T00:01:14.574Z,26.04
2023-04-23T00:02:14.815Z,26.04
2023-04-23T00:03:14.748Z,26.02
2023-04-23T00:04:14.927Z,26.04
2023-04-23T00:05:14.801Z,26.04
2023-04-23T00:06:14.794Z,26.05
2023-04-23T00:07:14.815Z,26.02
2023-04-23T00:08:14.883Z,26.02
2023-04-23T00:09:14.898Z,26.02
2023-04-23T00:10:14.951Z,26.04
2023-04-23T00:11:14.996Z,26.05
2023-04-23T00:12:15.046Z,26.02
2023-04-23T00:13:15.590Z,26.04
2023-04-23T00:14:15.117Z,26.04
2023-04-23T00:15:15.181Z,26.02
2023-04-23T00:16:15.206Z,25.99
2023-04-23T00:17:15.242Z,26.01
2023-04-23T00:18:15.290Z,25.99
2023-04-23T00:19:15.331Z,26.01
2023-04-23T00:20:15.384Z,26.02
2023-04-23T00:21:15.447Z,26.02
2023-04-23T00:22:15.438Z,26.02
2023-04-23T00:23:15.491Z,26.01
2023-04-23T00:24:15.524Z,26.01
2023-04-23T00:25:15.606Z,26.02
2023-04-23T00:26:15.622Z,26.02
2023-04-23T00:27:15.641Z,26.04
2023-04-23T00:28:15.691Z,26.04
2023-04-23T00:29:15.737Z,26.05
2023-04-23T00:30:15.781Z,26.05
2023-04-23T00:31:15.866Z,26.06
2023-04-23T00:32:15.803Z,26.05
2023-04-23T00:33:15.868Z,26.06
2023-04-23T00:34:15.887Z,26.06
2023-04-23T00:35:15.906Z,26.05
2023-04-23T00:36:15.975Z,26.05
2023-04-23T00:37:15.962Z,26.09
2023-04-23T00:38:16.013Z,26.06
2023-04-23T00:39:16.077Z,26.08
2023-04-23T00:40:16.069Z,26.08
2023-04-23T00:41:16.134Z,26.08
2023-04-23T00:42:16.161Z,26.06
2023-04-23T00:43:16.176Z,26.11
2023-04-23T00:44:16.208Z,26.11
2023-04-23T00:45:16.242Z,26.09
2023-04-23T00:46:16.357Z,26.09
2023-04-23T00:47:16.483Z,26.08
2023-04-23T00:48:16.336Z,26.09
2023-04-23T00:49:16.374Z,26.11
2023-04-23T00:50:16.465Z,26.09
2023-04-23T00:51:16.473Z,26.09
2023-04-23T00:52:16.449Z,26.09
2023-04-23T00:53:16.580Z,26.09
2023-04-23T00:54:16.522Z,26.08
2023-04-23T00:55:16.566Z,26.12
2023-04-23T00:56:16.593Z,26.12
2023-04-23T00:57:16.600Z,26.09
2023-04-23T00:58:16.722Z,26.09
2023-04-23T00:59:16.683Z,26.11
2023-04-23T01:00:16.717Z,26.11
2023-04-23T01:01:16.752Z,26.12
2023-04-23T01:02:16.802Z,26.09
2023-04-23T01:03:16.833Z,26.09
2023-04-23T01:04:16.995Z,26.14
2023-04-23T01:05:16.878Z,26.11
2023-04-23T01:06:16.909Z,26.09
2023-04-23T01:07:16.916Z,26.09
2023-04-23T01:08:16.968Z,26.11
2023-04-23T01:09:16.988Z,26.11
2023-04-23T01:10:17.010Z,26.11
2023-04-23T01:11:17.082Z,26.12
2023-04-23T01:12:17.077Z,26.08
2023-04-23T01:13:17.138Z,26.09
2023-04-23T01:14:17.149Z,26.09
2023-04-23T01:15:17.202Z,26.11
2023-04-23T01:16:17.212Z,26.09
2023-04-23T01:17:17.267Z,26.09
2023-04-23T01:18:17.279Z,26.08
2023-04-23T01:19:17.483Z,26.09
2023-04-23T01:20:17.394Z,26.12
2023-04-23T01:21:17.425Z,26.11
2023-04-23T01:22:17.492Z,26.08
2023-04-23T01:23:17.452Z,26.09
2023-04-23T01:24:17.480Z,26.12
2023-04-23T01:25:17.537Z,26.11
2023-04-23T01:26:17.611Z,26.12
2023-04-23T01:27:17.641Z,26.14
2023-04-23T01:28:17.680Z,26.11
2023-04-23T01:29:17.718Z,26.11
2023-04-23T01:30:17.765Z,26.14
2023-04-23T01:31:17.791Z,26.09
2023-04-23T01:32:17.899Z,26.12
2023-04-23T01:33:17.893Z,26.12
2023-04-23T01:34:17.932Z,26.12
2023-04-23T01:35:17.999Z,26.12
2023-04-23T01:36:18.020Z,26.11
2023-04-23T01:37:18.040Z,26.11
2023-04-23T01:38:18.093Z,26.12
2023-04-23T01:39:18.157Z,26.09
2023-04-23T01:40:18.183Z,26.08
2023-04-23T01:41:18.250Z,26.06
2023-04-23T01:42:18.295Z,26.09
2023-04-23T01:43:18.331Z,26.09
2023-04-23T01:44:18.400Z,26.05
2023-04-23T01:45:18.448Z,26.08
2023-04-23T01:46:18.526Z,26.06
2023-04-23T01:47:18.509Z,26.05
2023-04-23T01:48:18.605Z,26.06
2023-04-23T01:49:18.633Z,26.08
2023-04-23T01:50:18.695Z,26.06
2023-04-23T01:51:18.707Z,26.08
2023-04-23T01:52:18.816Z,26.06
2023-04-23T01:53:18.821Z,26.06
2023-04-23T01:54:18.886Z,26.05
2023-04-23T01:55:18.905Z,26.06
2023-04-23T01:56:19.001Z,26.06
2023-04-23T01:57:19.017Z,26.08
2023-04-23T01:58:19.059Z,26.08
2023-04-23T01:59:19.125Z,26.08
2023-04-23T02:00:19.194Z,26.09
2023-04-23T02:01:19.312Z,26.09
2023-04-23T02:02:19.292Z,26.09
2023-04-23T02:03:19.415Z,26.06
2023-04-23T02:04:19.430Z,26.11
2023-04-23T02:05:19.392Z,26.09
2023-04-23T02:06:19.426Z,26.08
2023-04-23T02:07:19.480Z,26.09
2023-04-23T02:08:19.513Z,26.11
2023-04-23T02:09:19.568Z,26.11
2023-04-23T02:10:19.581Z,26.12
2023-04-23T02:11:19.673Z,26.12
2023-04-23T02:12:19.668Z,26.14
2023-04-23T02:13:19.737Z,26.14
2023-04-23T02:14:19.801Z,26.11
2023-04-23T02:15:19.844Z,26.11
2023-04-23T02:16:19.979Z,26.11
2023-04-23T02:17:20.664Z,26.11
2023-04-23T02:18:19.959Z,26.12
2023-04-23T02:19:19.995Z,26.12
2023-04-23T02:20:20.058Z,26.12
2023-04-23T02:21:20.104Z,26.11
2023-04-23T02:22:20.139Z,26.11
2023-04-23T02:23:20.209Z,26.11
2023-04-23T02:24:20.243Z,26.11
2023-04-23T02:25:20.312Z,26.11
2023-04-23T02:26:20.332Z,26.12
2023-04-23T02:27:20.392Z,26.09
2023-04-23T02:28:20.411Z,26.11
2023-04-23T02:29:20.460Z,26.08
2023-04-23T02:30:20.497Z,26.09
2023-04-23T02:31:20.673Z,26.09
2023-04-23T02:32:20.653Z,26.08
2023-04-23T02:33:20.673Z,26.08
2023-04-23T02:34:20.726Z,26.08
2023-04-23T02:35:20.774Z,26.09
2023-04-23T02:36:20.836Z,26.06
2023-04-23T02:37:20.876Z,26.06
2023-04-23T02:38:20.947Z,26.08
2023-04-23T02:39:20.975Z,26.06
2023-04-23T02:40:21.047Z,26.06
2023-04-23T02:41:21.088Z,26.08
2023-04-23T02:42:21.165Z,26.08
2023-04-23T02:44:07.032Z,26.02
2023-04-23T02:45:07.029Z,26.06
2023-04-23T02:46:06.978Z,26.08
2023-04-23T02:47:07.120Z,26.11
2023-04-23T02:48:06.967Z,26.09
2023-04-23T02:49:06.984Z,26.09
2023-04-23T02:50:06.982Z,26.09
2023-04-23T02:51:06.987Z,26.11
2023-04-23T02:52:06.938Z,26.11
2023-04-23T02:53:06.945Z,26.08
2023-04-23T02:54:06.964Z,26.08
2023-04-23T02:55:06.950Z,26.09
2023-04-23T02:56:06.943Z,26.08
2023-04-23T02:57:06.922Z,26.08
2023-04-23T02:58:06.917Z,26.08
2023-04-23T02:59:06.897Z,26.08
2023-04-23T03:00:06.917Z,26.05
2023-04-23T03:01:06.912Z,26.06
2023-04-23T03:02:06.976Z,26.08
2023-04-23T03:03:06.949Z,26.11
2023-04-23T03:04:06.907Z,26.08
2023-04-23T03:05:06.873Z,26.08
2023-04-23T03:06:06.867Z,26.05
2023-04-23T03:07:06.846Z,26.06
2023-04-23T03:08:06.841Z,26.05
2023-04-23T03:09:06.836Z,26.05
2023-04-23T03:10:06.846Z,26.05
2023-04-23T03:11:06.815Z,26.05
2023-04-23T03:12:06.799Z,26.06
2023-04-23T03:13:06.787Z,26.09
2023-04-23T03:14:06.783Z,26.06
2023-04-23T03:15:06.804Z,26.06
2023-04-23T03:16:06.807Z,26.09
2023-04-23T03:17:06.759Z,26.08
2023-04-23T03:18:06.756Z,26.08
2023-04-23T03:19:06.762Z,26.09
2023-04-23T03:20:06.719Z,26.08
2023-04-23T03:21:06.760Z,26.08
2023-04-23T03:22:06.752Z,26.08
2023-04-23T03:23:06.734Z,26.08
2023-04-23T03:24:06.725Z,26.09
2023-04-23T03:25:06.683Z,26.09
2023-04-23T03:26:06.683Z,26.11
2023-04-23T03:27:06.677Z,26.06
2023-04-23T03:28:06.683Z,26.11
2023-04-23T03:29:06.691Z,26.12
2023-04-23T03:30:06.692Z,26.11
2023-04-23T03:31:06.752Z,26.09
2023-04-23T03:32:06.657Z,26.08
2023-04-23T03:33:06.639Z,26.09
2023-04-23T03:34:06.644Z,26.06
2023-04-23T03:35:06.647Z,26.06
2023-04-23T03:36:06.639Z,26.08
2023-04-23T03:37:06.622Z,26.06
2023-04-23T03:38:06.601Z,26.06
2023-04-23T03:39:06.670Z,26.06
2023-04-23T03:40:06.677Z,26.06
2023-04-23T03:41:06.728Z,26.06
2023-04-23T03:42:06.745Z,26.06
2023-04-23T03:43:06.797Z,26.06
2023-04-23T03:44:06.815Z,26.06
2023-04-23T03:45:06.895Z,26.06
2023-04-23T03:46:06.949Z,26.06
2023-04-23T03:47:06.938Z,26.05
2023-04-23T03:48:06.991Z,26.06
2023-04-23T03:49:06.998Z,26.08
2023-04-23T03:50:07.046Z,26.08
2023-04-23T03:51:07.099Z,26.08
2023-04-23T03:52:07.148Z,26.08
2023-04-23T03:53:07.182Z,26.08
2023-04-23T03:54:07.197Z,26.08
2023-04-23T03:55:07.222Z,26.08
2023-04-23T03:56:07.270Z,26.08
2023-04-23T03:57:07.302Z,26.08
2023-04-23T03:58:07.346Z,26.08
2023-04-23T03:59:07.367Z,26.06
2023-04-23T04:00:07.392Z,26.09
2023-04-23T04:01:07.444Z,26.09
2023-04-23T04:02:07.545Z,26.06
2023-04-23T04:03:07.608Z,26.08
2023-04-23T04:04:07.788Z,26.09
2023-04-23T04:05:07.839Z,26.09
2023-04-23T04:06:07.661Z,26.12
2023-04-23T04:07:07.684Z,26.09
2023-04-23T04:08:07.754Z,26.09
2023-04-23T04:09:07.719Z,26.09
2023-04-23T04:10:07.742Z,26.12
2023-04-23T04:11:07.818Z,26.09
2023-04-23T04:12:07.840Z,26.11
2023-04-23T04:13:07.854Z,26.12
2023-04-23T04:14:07.910Z,26.09
2023-04-23T04:15:07.933Z,26.08
2023-04-23T04:16:08.053Z,26.05
2023-04-23T04:17:08.014Z,26.02
2023-04-23T04:18:08.090Z,26.04
2023-04-23T04:19:08.133Z,25.99
2023-04-23T04:20:08.242Z,25.95
2023-04-23T04:21:08.289Z,25.94
2023-04-23T04:22:08.299Z,25.89
2023-04-23T04:23:08.361Z,25.88
2023-04-23T04:24:08.416Z,25.83
2023-04-23T04:25:08.503Z,25.83
2023-04-23T04:26:08.535Z,25.78
2023-04-23T04:27:08.585Z,25.81
2023-04-23T04:28:08.603Z,25.74
2023-04-23T04:29:08.652Z,25.74
2023-04-23T04:30:08.714Z,25.74
2023-04-23T04:31:08.779Z,25.74
2023-04-23T04:32:08.782Z,25.74
2023-04-23T04:33:08.821Z,25.73
2023-04-23T04:34:08.905Z,25.75
2023-04-23T04:35:08.957Z,25.75
2023-04-23T04:36:09.010Z,25.77
2023-04-23T04:37:09.067Z,25.78
2023-04-23T04:38:09.122Z,25.81
2023-04-23T04:39:09.192Z,25.81
2023-04-23T04:40:09.196Z,25.83
2023-04-23T04:41:09.281Z,25.85
2023-04-23T04:42:09.306Z,25.87
2023-04-23T04:43:09.381Z,25.89
2023-04-23T04:44:09.411Z,25.89
2023-04-23T04:45:09.482Z,25.91
2023-04-23T04:46:09.486Z,25.91
2023-04-23T04:47:09.593Z,25.92
2023-04-23T04:48:09.593Z,25.91
2023-04-23T04:49:09.620Z,25.94
2023-04-23T04:50:09.638Z,25.92
2023-04-23T04:51:09.718Z,25.96
2023-04-23T04:52:09.750Z,25.96
2023-04-23T04:53:09.774Z,25.96
2023-04-23T04:54:09.842Z,25.99
2023-04-23T04:55:09.849Z,25.99
2023-04-23T04:56:09.899Z,25.98
2023-04-23T04:57:09.945Z,26.01
2023-04-23T04:58:09.926Z,25.99
2023-04-23T04:59:10.015Z,26.02
2023-04-23T05:00:10.014Z,26.02
2023-04-23T05:01:10.091Z,26.04
2023-04-23T05:02:10.202Z,26.04
2023-04-23T05:03:12.504Z,26.04
2023-04-23T05:04:10.434Z,26.05
2023-04-23T05:05:10.130Z,26.04
2023-04-23T05:06:10.107Z,26.05
2023-04-23T05:07:10.105Z,26.06
2023-04-23T05:08:10.103Z,26.06
2023-04-23T05:09:10.096Z,26.05
2023-04-23T05:10:10.099Z,26.05
2023-04-23T05:11:10.094Z,26.05
2023-04-23T05:12:10.097Z,26.02
2023-04-23T05:13:10.050Z,26.08
2023-04-23T05:14:10.055Z,26.06
2023-04-23T05:15:10.054Z,26.06
2023-04-23T05:16:10.105Z,26.08
2023-04-23T05:17:10.073Z,26.08
2023-04-23T05:18:10.049Z,26.08
2023-04-23T05:19:10.025Z,26.06
2023-04-23T05:20:09.999Z,26.05
2023-04-23T05:21:10.049Z,26.06
2023-04-23T05:22:09.995Z,26.08
2023-04-23T05:23:10.018Z,26.11
2023-04-23T05:24:10.044Z,26.11
2023-04-23T05:25:09.964Z,26.08
2023-04-23T05:26:09.997Z,26.09
2023-04-23T05:27:09.977Z,26.09
2023-04-23T05:28:09.964Z,26.12
2023-04-23T05:29:09.966Z,26.09
2023-04-23T05:30:09.950Z,26.11
2023-04-23T05:31:09.941Z,26.11
2023-04-23T05:32:09.973Z,26.11
2023-04-23T05:33:09.943Z,26.08
2023-04-23T05:34:09.901Z,26.09
2023-04-23T05:35:09.904Z,26.11
2023-04-23T05:36:09.908Z,26.12
2023-04-23T05:37:09.879Z,26.14
2023-04-23T05:38:09.887Z,26.14
2023-04-23T05:39:09.891Z,26.12
2023-04-23T05:40:09.863Z,26.15
2023-04-23T05:41:09.840Z,26.14
2023-04-23T05:42:09.863Z,26.14
2023-04-23T05:43:09.865Z,26.14
2023-04-23T05:44:09.852Z,26.15
2023-04-23T05:45:09.879Z,26.16
2023-04-23T05:46:09.919Z,26.15
2023-04-23T05:47:09.920Z,26.15
2023-04-23T05:48:09.955Z,26.14
2023-04-23T05:49:10.026Z,26.15
2023-04-23T05:50:09.996Z,26.15
2023-04-23T05:51:10.044Z,26.16
2023-04-23T05:52:10.073Z,26.15
2023-04-23T05:53:10.075Z,26.15
2023-04-23T05:54:10.120Z,26.16
2023-04-23T05:55:10.278Z,26.16
2023-04-23T05:56:10.177Z,26.16
2023-04-23T05:57:10.222Z,26.19
2023-04-23T05:58:10.227Z,26.18
2023-04-23T05:59:10.265Z,26.16
2023-04-23T06:00:10.284Z,26.18
2023-04-23T06:01:10.365Z,26.18
2023-04-23T06:02:10.454Z,26.19
2023-04-23T06:03:10.577Z,26.18
2023-04-23T06:04:10.685Z,26.18
2023-04-23T06:05:10.622Z,26.18
2023-04-23T06:06:10.491Z,26.18
2023-04-23T06:07:10.575Z,26.18
2023-04-23T06:08:10.589Z,26.21
2023-04-23T06:09:10.541Z,26.18
2023-04-23T06:10:10.579Z,26.16
2023-04-23T06:11:10.617Z,26.18
2023-04-23T06:12:10.660Z,26.18
2023-04-23T06:13:10.654Z,26.21
2023-04-23T06:14:10.722Z,26.18
2023-04-23T06:15:10.737Z,26.18
2023-04-23T06:16:10.801Z,26.18
2023-04-23T06:17:10.791Z,26.15
2023-04-23T06:18:10.869Z,26.16
2023-04-23T06:19:10.828Z,26.19
2023-04-23T06:20:10.844Z,26.18
2023-04-23T06:21:10.909Z,26.16
2023-04-23T06:22:10.922Z,26.16
2023-04-23T06:23:10.983Z,26.16
2023-04-23T06:24:10.995Z,26.12
2023-04-23T06:25:11.030Z,26.11
2023-04-23T06:26:11.092Z,26.09
2023-04-23T06:27:11.114Z,26.05
2023-04-23T06:28:11.173Z,26.02
2023-04-23T06:29:11.219Z,26.02
2023-04-23T06:30:11.258Z,26.02
2023-04-23T06:31:11.402Z,25.99
2023-04-23T06:32:11.362Z,25.99
2023-04-23T06:33:11.382Z,25.99
2023-04-23T06:34:11.456Z,25.99
2023-04-23T06:35:11.506Z,26.01
2023-04-23T06:36:11.542Z,25.99
2023-04-23T06:37:11.594Z,25.99
2023-04-23T06:38:11.657Z,25.99
2023-04-23T06:39:11.673Z,26.01
2023-04-23T06:40:11.700Z,25.99
2023-04-23T06:41:11.764Z,25.99
2023-04-23T06:42:11.804Z,26.01
2023-04-23T06:43:11.866Z,26.01
2023-04-23T06:44:11.934Z,25.96
2023-04-23T06:45:11.964Z,26.01
2023-04-23T06:46:12.015Z,25.99
2023-04-23T06:47:12.243Z,26.02
2023-04-23T06:48:12.080Z,26.01
2023-04-23T06:49:12.121Z,25.99
2023-04-23T06:50:12.138Z,25.98
2023-04-23T06:51:12.223Z,25.99
2023-04-23T06:52:12.275Z,25.99
2023-04-23T06:53:12.410Z,26.01
2023-04-23T06:54:12.343Z,25.96
2023-04-23T06:55:12.427Z,25.95
2023-04-23T06:56:12.445Z,25.96
2023-04-23T06:57:12.502Z,25.98
2023-04-23T06:58:13.630Z,25.95
2023-04-23T06:59:12.567Z,25.96
2023-04-23T07:00:12.659Z,25.96
2023-04-23T07:01:12.733Z,25.98
2023-04-23T07:02:12.712Z,25.98
2023-04-23T07:03:12.867Z,25.98
2023-04-23T07:04:12.863Z,25.96
2023-04-23T07:05:12.877Z,25.99
2023-04-23T07:06:12.902Z,25.98
2023-04-23T07:07:12.913Z,26.01
2023-04-23T07:08:12.957Z,25.99
2023-04-23T07:09:13.081Z,26.04
2023-04-23T07:10:14.461Z,26.05
2023-04-23T07:11:13.053Z,26.05
2023-04-23T07:12:13.032Z,26.09
2023-04-23T07:13:13.026Z,26.06
2023-04-23T07:14:13.040Z,26.09
2023-04-23T07:15:13.009Z,26.12
2023-04-23T07:16:13.017Z,26.12
2023-04-23T07:17:12.983Z,26.15
2023-04-23T07:18:13.002Z,26.15
2023-04-23T07:19:12.965Z,26.15
2023-04-23T07:20:13.000Z,26.18
2023-04-23T07:21:12.945Z,26.18
2023-04-23T07:22:12.993Z,26.21
2023-04-23T07:23:12.995Z,26.18
2023-04-23T07:24:12.966Z,26.22
2023-04-23T07:25:12.944Z,26.25
2023-04-23T07:26:12.942Z,26.21
2023-04-23T07:27:12.928Z,26.24
2023-04-23T07:28:12.915Z,26.25
2023-04-23T07:29:12.929Z,26.26
2023-04-23T07:30:12.929Z,26.28
2023-04-23T07:31:12.922Z,26.26
2023-04-23T07:32:12.934Z,26.29
2023-04-23T07:33:12.869Z,26.29
2023-04-23T07:34:13.004Z,26.28
2023-04-23T07:35:12.898Z,26.29
2023-04-23T07:36:12.893Z,26.31
2023-04-23T07:37:12.838Z,26.31
2023-04-23T07:38:12.851Z,26.32
2023-04-23T07:39:12.847Z,26.34
2023-04-23T07:40:12.820Z,26.31
2023-04-23T07:41:12.820Z,26.35
2023-04-23T07:42:12.820Z,26.32
2023-04-23T07:43:12.908Z,26.34
2023-04-23T07:44:12.801Z,26.32
2023-04-23T07:45:12.838Z,26.35
2023-04-23T07:46:12.872Z,26.38
2023-04-23T07:47:12.800Z,26.36
2023-04-23T07:48:12.769Z,26.35
2023-04-23T07:49:12.778Z,26.38
2023-04-23T07:50:12.756Z,26.35
2023-04-23T07:51:12.742Z,26.38
2023-04-23T07:52:12.759Z,26.38
2023-04-23T07:53:12.723Z,26.39
2023-04-23T07:54:12.740Z,26.36
2023-04-23T07:55:12.736Z,26.39
2023-04-23T07:56:12.730Z,26.38
2023-04-23T07:57:12.733Z,26.39
2023-04-23T07:58:12.704Z,26.43
2023-04-23T07:59:12.691Z,26.45
2023-04-23T08:00:12.683Z,26.45
2023-04-23T08:01:12.701Z,26.42
2023-04-23T08:02:12.780Z,26.43
2023-04-23T08:03:12.870Z,26.45
2023-04-23T08:04:12.804Z,26.42
2023-04-23T08:05:12.803Z,26.42
2023-04-23T08:06:12.650Z,26.42
2023-04-23T08:07:12.646Z,26.47
2023-04-23T08:08:12.630Z,26.47
2023-04-23T08:09:12.648Z,26.46
2023-04-23T08:10:12.637Z,26.50
2023-04-23T08:11:12.646Z,26.49
2023-04-23T08:12:12.624Z,26.49
2023-04-23T08:13:12.598Z,26.50
2023-04-23T08:14:12.599Z,26.53
2023-04-23T08:15:12.592Z,26.53
2023-04-23T08:16:12.652Z,26.53
2023-04-23T08:17:12.582Z,26.56
2023-04-23T08:18:12.604Z,26.55
2023-04-23T08:19:12.584Z,26.55
2023-04-23T08:20:12.571Z,26.57
2023-04-23T08:21:12.552Z,26.59
2023-04-23T08:22:12.567Z,26.57
2023-04-23T08:23:12.621Z,26.60
2023-04-23T08:24:12.541Z,26.59
2023-04-23T08:25:12.533Z,26.60
2023-04-23T08:26:12.537Z,26.59
2023-04-23T08:27:12.516Z,26.60
2023-04-23T08:28:12.496Z,26.60
2023-04-23T08:29:12.488Z,26.62
2023-04-23T08:30:12.517Z,26.62
2023-04-23T08:31:25.743Z,26.60
2023-04-23T08:32:13.713Z,26.59
2023-04-23T08:33:12.640Z,26.60
2023-04-23T08:34:12.460Z,26.62
2023-04-23T08:35:12.474Z,26.62
2023-04-23T08:36:12.448Z,26.63
2023-04-23T08:37:23.248Z,26.60
2023-04-23T08:38:13.446Z,26.63
2023-04-23T08:39:12.415Z,26.64
2023-04-23T08:40:12.403Z,26.62
2023-04-23T08:41:12.426Z,26.63
2023-04-23T08:42:12.411Z,26.64
2023-04-23T08:43:12.419Z,26.64
2023-04-23T08:44:12.409Z,26.63
2023-04-23T08:45:12.405Z,26.64
2023-04-23T08:46:12.492Z,26.63
2023-04-23T08:47:12.408Z,26.67
2023-04-23T08:48:12.446Z,26.67
2023-04-23T08:49:12.333Z,26.67
2023-04-23T08:50:12.375Z,26.64
2023-04-23T08:51:12.330Z,26.66
2023-04-23T08:52:12.350Z,26.67
2023-04-23T08:53:12.335Z,26.64
2023-04-23T08:54:12.346Z,26.67
2023-04-23T08:55:12.332Z,26.67
2023-04-23T08:56:12.326Z,26.69
2023-04-23T08:57:12.312Z,26.69
2023-04-23T08:58:12.309Z,26.67
2023-04-23T08:59:12.298Z,26.72
2023-04-23T09:00:12.289Z,26.69
2023-04-23T09:01:12.302Z,26.69
2023-04-23T09:02:12.330Z,26.69
2023-04-23T09:03:12.497Z,26.69
2023-04-23T09:04:12.271Z,26.69
2023-04-23T09:05:12.225Z,26.67
2023-04-23T09:06:12.235Z,26.69
2023-04-23T09:07:12.205Z,26.70
2023-04-23T09:08:12.232Z,26.69
2023-04-23T09:09:12.265Z,26.72
2023-04-23T09:10:12.200Z,26.70
2023-04-23T09:11:12.201Z,26.69
2023-04-23T09:12:12.187Z,26.70
2023-04-23T09:13:12.179Z,26.70
2023-04-23T09:14:12.166Z,26.69
2023-04-23T09:15:12.182Z,26.69
2023-04-23T09:16:12.226Z,26.69
2023-04-23T09:17:12.160Z,26.70
2023-04-23T09:18:12.186Z,26.70
2023-04-23T09:19:12.164Z,26.70
2023-04-23T09:20:12.167Z,26.70
2023-04-23T09:21:12.140Z,26.72
2023-04-23T09:22:12.127Z,26.70
2023-04-23T09:23:12.117Z,26.70
2023-04-23T09:24:12.098Z,26.72
2023-04-23T09:25:12.101Z,26.72
2023-04-23T09:26:12.094Z,26.73
2023-04-23T09:27:12.078Z,26.73
2023-04-23T09:28:12.105Z,26.75
2023-04-23T09:29:12.057Z,26.72
2023-04-23T09:30:12.054Z,26.73
2023-04-23T09:31:12.074Z,26.73
2023-04-23T09:32:12.090Z,26.73
2023-04-23T09:33:12.045Z,26.73
2023-04-23T09:34:12.831Z,26.76
2023-04-23T09:35:12.030Z,26.77
2023-04-23T09:36:12.038Z,26.77
2023-04-23T09:37:12.007Z,26.77
2023-04-23T09:38:12.002Z,26.77
2023-04-23T09:39:12.014Z,26.79
2023-04-23T09:40:11.989Z,26.80
2023-04-23T09:41:12.003Z,26.77
2023-04-23T09:42:11.974Z,26.79
2023-04-23T09:43:11.962Z,26.80
2023-04-23T09:44:11.992Z,26.82
2023-04-23T09:45:11.965Z,26.80
2023-04-23T09:46:12.013Z,26.80
2023-04-23T09:47:11.961Z,26.80
2023-04-23T09:48:11.948Z,26.79
2023-04-23T09:49:11.973Z,26.82
2023-04-23T09:50:11.944Z,26.82
2023-04-23T09:51:11.937Z,26.82
2023-04-23T09:52:11.921Z,26.80
2023-04-23T09:53:11.904Z,26.82
2023-04-23T09:54:11.889Z,26.85
2023-04-23T09:55:11.910Z,26.83
2023-04-23T09:56:11.899Z,26.85
2023-04-23T09:57:11.930Z,26.85
2023-04-23T09:58:11.948Z,26.83
2023-04-23T09:59:11.952Z,26.85
2023-04-23T10:00:14.823Z,26.86
2023-04-23T10:01:11.993Z,26.87
2023-04-23T10:02:12.004Z,26.87
2023-04-23T10:03:12.329Z,26.86
2023-04-23T10:04:12.051Z,26.87
2023-04-23T10:05:23.581Z,26.87
2023-04-23T10:06:21.625Z,26.85
2023-04-23T10:07:18.074Z,26.86
2023-04-23T10:08:12.901Z,26.89
2023-04-23T10:09:11.886Z,26.89
2023-04-23T10:10:11.877Z,26.89
2023-04-23T10:11:20.501Z,26.89
2023-04-23T10:12:28.934Z,26.90
2023-04-23T10:13:12.865Z,26.90
2023-04-23T10:14:11.835Z,26.93
2023-04-23T10:15:11.859Z,26.93
2023-04-23T10:16:21.606Z,26.93
2023-04-23T10:17:12.908Z,26.93
2023-04-23T10:18:11.846Z,26.93
2023-04-23T10:19:11.847Z,26.91
2023-04-23T10:20:11.798Z,26.96
2023-04-23T10:21:11.799Z,26.96
2023-04-23T10:22:19.368Z,26.97
2023-04-23T10:23:12.841Z,26.94
2023-04-23T10:24:11.804Z,26.94
2023-04-23T10:25:11.784Z,26.99
2023-04-23T10:26:11.758Z,26.99
2023-04-23T10:27:21.919Z,26.97
2023-04-23T10:28:12.757Z,26.99
2023-04-23T10:29:11.781Z,26.99
2023-04-23T10:30:11.785Z,27.03
2023-04-23T10:31:11.795Z,27.00
2023-04-23T10:32:11.763Z,26.99
2023-04-23T10:33:22.304Z,27.01
2023-04-23T10:34:12.772Z,27.00
2023-04-23T10:35:11.750Z,27.01
2023-04-23T10:36:11.730Z,26.99
2023-04-23T10:37:11.702Z,27.00
2023-04-23T10:38:11.869Z,27.00
2023-04-23T10:39:11.709Z,26.97
2023-04-23T10:40:11.781Z,26.99
2023-04-23T10:41:11.657Z,27.00
2023-04-23T10:42:11.660Z,26.97
2023-04-23T10:43:11.679Z,26.96
2023-04-23T10:44:12.153Z,26.96
2023-04-23T10:45:23.280Z,26.94
2023-04-23T10:46:12.694Z,26.99
2023-04-23T10:47:11.632Z,27.00
2023-04-23T10:48:11.657Z,27.00
2023-04-23T10:49:11.614Z,26.99
2023-04-23T10:50:11.602Z,27.00
2023-04-23T10:51:44.780Z,27.00
2023-04-23T10:52:18.496Z,27.00
2023-04-23T10:53:12.639Z,27.00
2023-04-23T10:54:11.628Z,27.01
2023-04-23T10:55:11.590Z,27.01
2023-04-23T10:56:11.587Z,26.99
2023-04-23T10:57:11.592Z,27.03
2023-04-23T10:58:11.589Z,27.01
2023-04-23T10:59:11.564Z,27.00
2023-04-23T11:00:11.569Z,27.03
2023-04-23T11:01:11.555Z,27.00
2023-04-23T11:02:11.630Z,26.99
2023-04-23T11:03:11.707Z,27.00
2023-04-23T11:04:11.649Z,26.99
2023-04-23T11:05:11.519Z,27.01
2023-04-23T11:06:11.533Z,27.00
2023-04-23T11:07:11.529Z,27.01
2023-04-23T11:08:19.500Z,27.03
2023-04-23T11:09:12.525Z,26.99
2023-04-23T11:10:11.506Z,27.01
2023-04-23T11:11:11.504Z,27.01
2023-04-23T11:12:11.521Z,26.99
2023-04-23T11:13:11.487Z,27.03
2023-04-23T11:14:11.489Z,27.03
2023-04-23T11:15:11.472Z,27.04
2023-04-23T11:16:11.479Z,27.00
2023-04-23T11:17:11.447Z,27.01
2023-04-23T11:18:11.447Z,27.01
2023-04-23T11:19:11.447Z,27.03
2023-04-23T11:20:11.477Z,27.01
2023-04-23T11:21:11.407Z,27.04
2023-04-23T11:22:11.410Z,27.01
2023-04-23T11:23:11.459Z,27.01
2023-04-23T11:24:11.408Z,27.01
2023-04-23T11:25:11.417Z,27.03
2023-04-23T11:26:11.390Z,27.04
2023-04-23T11:27:11.391Z,27.04
2023-04-23T11:28:11.385Z,27.00
2023-04-23T11:29:11.383Z,27.03
2023-04-23T11:30:11.391Z,27.01
2023-04-23T11:31:11.403Z,27.04
2023-04-23T11:32:11.396Z,27.04
2023-04-23T11:33:11.341Z,27.06
2023-04-23T11:34:11.340Z,27.03
2023-04-23T11:35:13.595Z,27.03
2023-04-23T11:36:11.372Z,27.03
2023-04-23T11:37:11.395Z,27.01
2023-04-23T11:38:11.364Z,27.03
2023-04-23T11:39:11.352Z,27.04
2023-04-23T11:40:11.407Z,27.04
2023-04-23T11:41:11.371Z,27.04
2023-04-23T11:42:11.403Z,27.06
2023-04-23T11:43:11.422Z,27.07
2023-04-23T11:44:11.452Z,27.03
2023-04-23T11:45:11.444Z,27.04
2023-04-23T11:46:11.501Z,27.06
2023-04-23T11:47:11.499Z,27.04
2023-04-23T11:48:11.516Z,27.06
2023-04-23T11:49:11.546Z,27.06
2023-04-23T11:50:11.630Z,27.07
2023-04-23T11:51:11.612Z,27.08
2023-04-23T11:52:11.632Z,27.06
2023-04-23T11:53:11.650Z,27.06
2023-04-23T11:54:11.659Z,27.07
2023-04-23T11:55:11.682Z,27.04
2023-04-23T11:56:11.734Z,27.04
2023-04-23T11:57:11.736Z,27.04
2023-04-23T11:58:11.751Z,27.06
2023-04-23T11:59:11.803Z,27.04
2023-04-23T12:00:11.830Z,27.07
2023-04-23T12:01:11.837Z,27.07
2023-04-23T12:02:11.940Z,27.07
2023-04-23T12:03:12.041Z,27.06
2023-04-23T12:04:12.097Z,27.06
2023-04-23T12:05:11.938Z,27.06
2023-04-23T12:06:11.927Z,27.08
2023-04-23T12:07:25.374Z,27.08
2023-04-23T12:08:12.945Z,27.06
2023-04-23T12:09:11.957Z,27.07
2023-04-23T12:10:11.935Z,27.06
2023-04-23T12:11:11.952Z,27.03
2023-04-23T12:12:11.937Z,27.03
2023-04-23T12:13:11.920Z,27.00
2023-04-23T12:14:11.925Z,26.99
2023-04-23T12:15:11.896Z,26.97
2023-04-23T12:16:11.908Z,26.97
2023-04-23T12:17:11.914Z,26.99
2023-04-23T12:18:11.873Z,26.99
2023-04-23T12:19:11.879Z,27.00
2023-04-23T12:20:11.851Z,26.99
2023-04-23T12:21:11.879Z,26.97
2023-04-23T12:22:11.853Z,26.96
2023-04-23T12:23:11.837Z,26.97
2023-04-23T12:24:11.803Z,26.97
2023-04-23T12:25:11.897Z,26.99
2023-04-23T12:26:11.900Z,27.00
2023-04-23T12:27:11.903Z,27.01
2023-04-23T12:28:11.880Z,27.00
2023-04-23T12:29:11.865Z,27.00
2023-04-23T12:30:12.105Z,27.04
2023-04-23T12:31:11.934Z,27.03
2023-04-23T12:32:11.944Z,27.03
2023-04-23T12:33:11.957Z,27.06
2023-04-23T12:34:11.953Z,27.04
2023-04-23T12:35:11.966Z,27.07
2023-04-23T12:36:11.993Z,27.08
2023-04-23T12:37:12.005Z,27.08
2023-04-23T12:38:12.042Z,27.08
2023-04-23T12:39:12.116Z,27.10
2023-04-23T12:40:12.079Z,27.10
2023-04-23T12:41:12.108Z,27.10
2023-04-23T12:42:12.089Z,27.11
2023-04-23T12:43:12.129Z,27.06
2023-04-23T12:44:12.131Z,27.07
2023-04-23T12:45:12.121Z,27.08
2023-04-23T12:46:12.149Z,27.07
2023-04-23T12:47:12.156Z,27.07
2023-04-23T12:48:12.132Z,27.07
2023-04-23T12:49:12.147Z,27.07
2023-04-23T12:50:12.138Z,27.06
2023-04-23T12:51:12.106Z,27.06
2023-04-23T12:52:13.806Z,27.07
2023-04-23T12:53:12.097Z,27.06